Time;durP1;ratioP1;P1;durP2;ratioP2;P2;SDS_P1;SDS_P2;PMS_P1;PMS_P2;Temp;Humidity;BMP_temperature;BMP_pressure;BME280_temperature;BME280_humidity;BME280_pressure;Samples;Min_cycle;Max_cycle;Signal;HPM_P1;HPM_P2
2022/06/06 00:01:00;;;;;;;4.68;3.70;;;22.10;58.30;;;;;;4974700;28;20422;-71
2022/06/06 00:03:25;;;;;;;4.97;4.47;;;22.00;58.30;;;;;;4988221;28;20030;-72
2022/06/06 00:05:51;;;;;;;5.43;4.20;;;22.00;58.00;;;;;;4978183;28;20026;-71
2022/06/06 00:08:17;;;;;;;4.45;4.05;;;22.20;58.40;;;;;;4979468;28;20034;-71
2022/06/06 00:10:45;;;;;;;5.53;4.28;;;22.10;58.30;;;;;;4985173;28;20097;-71
2022/06/06 00:13:12;;;;;;;9.60;4.82;;;22.10;58.50;;;;;;4974071;28;20046;-71
2022/06/06 00:15:38;;;;;;;4.85;4.35;;;22.10;58.80;;;;;;4985004;28;20077;-71
2022/06/06 00:18:04;;;;;;;4.82;4.35;;;22.20;59.20;;;;;;4978197;28;20022;-70
2022/06/06 00:20:31;;;;;;;5.20;4.63;;;22.20;59.70;;;;;;5006485;28;20054;-71
2022/06/06 00:23:00;;;;;;;6.65;4.57;;;22.20;60.00;;;;;;4987109;28;20045;-71
2022/06/06 00:25:27;;;;;;;5.32;4.60;;;22.20;60.10;;;;;;4974813;28;20383;-71
2022/06/06 00:27:53;;;;;;;4.53;4.13;;;22.10;60.40;;;;;;4989489;28;20106;-71
2022/06/06 00:30:19;;;;;;;4.82;4.40;;;22.10;60.70;;;;;;5014211;28;20114;-71
2022/06/06 00:35:28;;;;;;;6.28;4.70;;;22.00;61.40;;;;;;4975015;28;20042;-70
2022/06/06 00:37:56;;;;;;;5.90;4.28;;;22.10;61.40;;;;;;4989351;28;20023;-70
2022/06/06 00:40:23;;;;;;;7.45;5.15;;;22.00;61.80;;;;;;4989621;28;20080;-70
2022/06/06 00:42:49;;;;;;;5.00;4.47;;;22.00;61.90;;;;;;4975088;28;20062;-70
2022/06/06 00:45:19;;;;;;;4.93;4.40;;;22.00;62.20;;;;;;4989483;28;20062;-71
2022/06/06 00:48:04;;;;;;;5.38;4.78;;;21.90;62.20;;;;;;4982996;28;20102;-71
2022/06/06 00:50:37;;;;;;;5.63;4.13;;;21.90;62.50;;;;;;4982962;28;20602;-71
2022/06/06 00:53:04;;;;;;;5.82;4.28;;;22.00;62.90;;;;;;4973644;28;20069;-71
2022/06/06 00:55:35;;;;;;;6.43;4.38;;;22.00;63.40;;;;;;5047318;28;20047;-70
2022/06/06 00:58:10;;;;;;;5.47;4.95;;;22.00;63.80;;;;;;4978220;28;20027;-70
2022/06/06 01:00:38;;;;;;;5.10;4.43;;;22.00;64.10;;;;;;4976472;28;20038;-71
2022/06/06 01:03:05;;;;;;;5.38;4.60;;;22.00;64.30;;;;;;4985933;28;20071;-70
2022/06/06 01:05:31;;;;;;;5.47;4.88;;;22.00;64.80;;;;;;4974822;28;20022;-71
2022/06/06 01:07:57;;;;;;;6.40;4.47;;;22.00;65.00;;;;;;4980693;28;20400;-71
2022/06/06 01:10:23;;;;;;;5.53;4.63;;;22.00;65.30;;;;;;4981757;28;20023;-71
2022/06/06 01:12:50;;;;;;;5.88;5.03;;;22.00;65.60;;;;;;4974566;28;20033;-72
2022/06/06 01:15:19;;;;;;;5.32;4.82;;;22.00;65.80;;;;;;4985914;28;20099;-71
2022/06/06 01:17:49;;;;;;;5.15;4.57;;;21.80;66.10;;;;;;4975715;28;20022;-72
2022/06/06 01:20:26;;;;;;;6.38;4.03;;;21.70;66.10;;;;;;4978965;28;20384;-70
2022/06/06 01:23:11;;;;;;;4.15;3.83;;;21.70;66.40;;;;;;4985561;28;20496;-71
2022/06/06 01:26:04;;;;;;;8.32;4.18;;;21.60;66.50;;;;;;4975459;28;20464;-71
2022/06/06 01:28:48;;;;;;;4.85;4.07;;;21.50;67.10;;;;;;4983737;28;20058;-71
2022/06/06 01:31:41;;;;;;;4.70;3.80;;;21.40;67.60;;;;;;4988283;28;20022;-70
2022/06/06 01:34:09;;;;;;;6.28;3.47;;;21.30;67.90;;;;;;4984659;28;20389;-70
2022/06/06 01:36:36;;;;;;;7.72;3.58;;;21.30;67.60;;;;;;4983122;28;20023;-70
2022/06/06 01:39:06;;;;;;;4.80;3.50;;;21.30;67.60;;;;;;4972425;28;20019;-70
2022/06/06 01:41:40;;;;;;;5.78;3.33;;;21.20;67.80;;;;;;5051423;28;20117;-71
2022/06/06 01:44:27;;;;;;;6.40;3.30;;;21.20;68.00;;;;;;4979228;28;20022;-71
2022/06/06 01:46:54;;;;;;;5.97;3.40;;;21.20;68.00;;;;;;4988940;28;20488;-71
2022/06/06 01:49:23;;;;;;;5.80;2.83;;;21.10;68.10;;;;;;4971435;28;20034;-72
2022/06/06 01:52:05;;;;;;;4.07;2.70;;;21.10;68.10;;;;;;4981887;28;20027;-70
2022/06/06 01:54:31;;;;;;;3.88;2.75;;;21.00;68.10;;;;;;4982424;28;20117;-71
2022/06/06 01:56:58;;;;;;;6.72;4.18;;;21.00;68.20;;;;;;4972892;28;20569;-68
2022/06/06 01:59:24;;;;;;;6.15;4.20;;;21.00;68.40;;;;;;5049163;28;20023;-70
2022/06/06 02:01:49;;;;;;;9.25;5.30;;;20.90;68.60;;;;;;4992574;28;20027;-70
2022/06/06 02:04:15;;;;;;;4.18;3.35;;;20.90;68.80;;;;;;4978141;28;20023;-69
2022/06/06 02:06:41;;;;;;;2.45;2.25;;;20.90;69.00;;;;;;4983407;28;20038;-69
2022/06/06 02:09:08;;;;;;;7.47;3.55;;;20.90;69.50;;;;;;4972037;28;20031;-70
2022/06/06 02:11:34;;;;;;;3.90;2.50;;;20.90;70.00;;;;;;5040938;28;20088;-70
2022/06/06 02:13:59;;;;;;;3.38;2.67;;;20.80;71.00;;;;;;4969530;28;20030;-70
2022/06/06 02:16:25;;;;;;;3.17;2.13;;;20.70;72.00;;;;;;4982484;28;20058;-71
2022/06/06 02:18:51;;;;;;;2.53;2.33;;;20.60;73.10;;;;;;4986794;28;20117;-71
2022/06/06 02:21:16;;;;;;;5.18;3.20;;;20.50;73.30;;;;;;4985719;28;20446;-71
2022/06/06 02:23:43;;;;;;;3.00;2.38;;;20.50;74.30;;;;;;4975770;28;20034;-71
2022/06/06 02:26:10;;;;;;;8.65;4.70;;;20.40;75.50;;;;;;4979195;28;20433;-71
2022/06/06 02:28:37;;;;;;;68.28;39.72;;;20.30;75.70;;;;;;5024075;28;20029;-70
2022/06/06 02:31:04;;;;;;;62.97;33.97;;;20.10;78.20;;;;;;4972414;28;20416;-72
2022/06/06 02:33:29;;;;;;;72.50;39.42;;;19.90;80.10;;;;;;4984144;28;20046;-71
2022/06/06 02:35:55;;;;;;;19.35;7.72;;;19.70;82.70;;;;;;4977325;28;20468;-71
2022/06/06 02:38:21;;;;;;;7.35;4.03;;;19.50;82.30;;;;;;4976757;28;20023;-71
2022/06/06 02:40:47;;;;;;;60.63;26.30;;;19.30;83.70;;;;;;4986012;28;20491;-71
2022/06/06 02:43:14;;;;;;;35.38;16.00;;;19.20;85.90;;;;;;4975478;28;20035;-71
2022/06/06 02:45:40;;;;;;;16.27;8.77;;;19.10;86.40;;;;;;4991832;28;20109;-71
2022/06/06 02:48:07;;;;;;;8.00;4.55;;;19.00;86.90;;;;;;4981564;28;20114;-70
2022/06/06 02:50:32;;;;;;;7.03;4.47;;;19.00;86.50;;;;;;4985317;28;20034;-71
2022/06/06 02:52:59;;;;;;;7.78;4.30;;;18.80;86.90;;;;;;4975317;28;20035;-71
2022/06/06 02:55:26;;;;;;;115.25;58.33;;;18.80;87.40;;;;;;4987540;28;20365;-71
2022/06/06 02:57:53;;;;;;;44.97;23.98;;;18.80;87.60;;;;;;4979005;28;20045;-71
2022/06/06 03:00:26;;;;;;;58.15;30.95;;;18.70;87.70;;;;;;4979876;28;20031;-71
2022/06/06 03:02:52;;;;;;;51.08;23.88;;;18.60;87.90;;;;;;5039878;28;20113;-70
2022/06/06 03:05:18;;;;;;;11.30;7.15;;;18.60;88.10;;;;;;4975200;28;20106;-72
2022/06/06 03:07:46;;;;;;;55.55;22.85;;;18.60;88.80;;;;;;4984003;28;20392;-71
2022/06/06 03:10:43;;;;;;;17.13;8.60;;;18.60;89.20;;;;;;4982574;28;20034;-72
2022/06/06 03:13:23;;;;;;;9.35;6.28;;;18.50;89.40;;;;;;4975410;28;20027;-71
2022/06/06 03:22:11;;;;;;;9.43;6.78;;;18.50;91.40;;;;;;4980941;28;20037;-71
2022/06/06 03:24:54;;;;;;;12.18;7.35;;;18.40;91.30;;;;;;4991489;28;20113;-71
2022/06/06 03:27:25;;;;;;;11.63;7.93;;;18.50;91.60;;;;;;4974435;28;20426;-71
2022/06/06 03:30:03;;;;;;;9.90;7.55;;;18.50;91.80;;;;;;5058513;28;20080;-71
2022/06/06 03:32:58;;;;;;;1230.05;579.33;;;18.50;91.70;;;;;;4978773;28;20399;-72
2022/06/06 03:35:46;;;;;;;356.85;131.88;;;18.50;92.20;;;;;;4975999;28;20056;-72
2022/06/06 03:38:20;;;;;;;363.75;117.38;;;18.60;92.40;;;;;;4990425;28;20026;-72
2022/06/06 03:40:57;;;;;;;8.57;7.40;;;18.60;92.50;;;;;;4990436;28;20026;-72
2022/06/06 03:43:34;;;;;;;13.88;9.95;;;18.50;91.90;;;;;;4976055;28;20023;-72
2022/06/06 03:46:24;;;;;;;93.78;30.10;;;18.40;92.20;;;;;;4992380;28;20041;-72
2022/06/06 03:49:18;;;;;;;69.85;24.80;;;18.50;92.50;;;;;;4976601;28;20106;-72
2022/06/06 03:51:59;;;;;;;33.05;15.10;;;18.50;92.40;;;;;;4987154;28;20113;-72
2022/06/06 03:54:30;;;;;;;35.05;14.75;;;18.50;92.30;;;;;;4990828;28;20031;-72
2022/06/06 03:57:14;;;;;;;10.82;7.60;;;18.50;92.80;;;;;;4974340;28;20477;-71
2022/06/06 03:59:41;;;;;;;12.27;8.00;;;18.40;92.40;;;;;;5038587;28;20366;-72
2022/06/06 04:02:10;;;;;;;9.88;8.88;;;18.50;92.50;;;;;;4981307;28;20019;-72
2022/06/06 04:04:35;;;;;;;15.25;8.15;;;18.40;92.70;;;;;;4999712;28;20486;-72
2022/06/06 04:07:03;;;;;;;9.82;7.38;;;18.30;92.40;;;;;;5060141;22;20070;-70
2022/06/06 04:09:30;;;;;;;11.27;7.68;;;18.20;91.90;;;;;;4985744;28;20369;-70
2022/06/06 04:12:09;;;;;;;11.20;9.25;;;18.00;91.80;;;;;;4979750;28;20115;-71
2022/06/06 04:15:19;;;;;;;9.70;7.97;;;18.00;92.40;;;;;;4981667;28;20488;-70
2022/06/06 04:18:07;;;;;;;10.57;8.52;;;18.20;92.60;;;;;;5029465;28;20025;-70
2022/06/06 04:20:48;;;;;;;10.75;7.65;;;;;;;;;;4951897;29;20034;-70
2022/06/06 04:23:17;;;;;;;8.40;7.10;;;;;;;;;;5033962;28;20047;-71
2022/06/06 04:25:50;;;;;;;9.95;7.97;;;;;;;;;;4971687;28;20031;-71
2022/06/06 04:28:34;;;;;;;9.20;7.20;;;;;;;;;;4959045;28;20023;-70
2022/06/06 04:31:00;;;;;;;8.63;7.82;;;;;;;;;;4967292;28;20027;-70
2022/06/06 04:33:29;;;;;;;11.68;8.40;;;;;;;;;;4955812;28;20042;-71
2022/06/06 04:36:13;;;;;;;9.32;7.75;;;;;;;;;;4962489;28;20493;-72
2022/06/06 04:38:44;;;;;;;8.85;7.18;;;;;;;;;;4964799;28;20049;-70
2022/06/06 04:41:29;;;;;;;9.02;6.97;;;;;;;;;;5031949;28;20474;-71
2022/06/06 04:44:13;;;;;;;7.55;6.68;;;;;;;;;;4959721;28;20038;-70
2022/06/06 04:47:00;;;;;;;7.45;6.65;;;;;;;;;;4956291;28;20031;-71
2022/06/06 04:49:32;;;;;;;7.35;6.15;;;;;;;;;;5038079;28;20034;-71
2022/06/06 04:51:59;;;;;;;9.25;5.90;;;;;;;;;;4961797;28;20034;-69
2022/06/06 04:54:25;;;;;;;7.35;5.65;;;;;;;;;;4963247;28;20031;-70
2022/06/06 04:56:52;;;;;;;7.18;6.03;;;;;;;;;;5020369;28;20027;-71
2022/06/06 04:59:18;;;;;;;6.00;5.40;;;;;;;;;;4953775;28;20019;-72
2022/06/06 05:01:44;;;;;;;6.00;5.45;;;;;;;;;;5013640;28;20023;-70
2022/06/06 05:04:10;;;;;;;7.20;5.38;;;;;;;;;;4960878;28;20030;-70
2022/06/06 05:06:49;;;;;;;6.40;5.10;;;;;;;;;;4956116;28;20396;-71
2022/06/06 05:09:21;;;;;;;5.95;4.30;;;;;;;;;;4965905;28;20081;-70
2022/06/06 05:12:05;;;;;;;6.40;4.85;;;;;;;;;;4958650;28;20034;-71
2022/06/06 05:14:49;;;;;;;4.90;4.15;;;;;;;;;;4956917;28;20067;-71
2022/06/06 05:17:24;;;;;;;4.18;3.78;;;;;;;;;;4965624;28;20027;-71
2022/06/06 05:20:11;;;;;;;6.25;3.92;;;;;;;;;;4958760;28;20106;-71
2022/06/06 05:22:37;;;;;;;6.15;4.07;;;;;;;;;;4962352;28;20039;-71
2022/06/06 05:25:03;;;;;;;5.75;3.90;;;;;;;;;;4966378;28;20168;-71
2022/06/06 05:27:47;;;;;;;3.58;3.25;;;;;;;;;;4954810;28;20022;-71
2022/06/06 05:30:28;;;;;;;3.58;2.70;;;;;;;;;;4959038;28;20437;-71
2022/06/06 05:33:09;;;;;;;4.90;2.67;;;;;;;;;;5020732;28;20027;-71
2022/06/06 05:35:35;;;;;;;;;;;;;;;;;;4956873;28;20027;-71
2022/06/06 05:38:01;;;;;;;2.63;2.42;;;;;;;;;;4959548;28;20292;-72
2022/06/06 05:40:38;;;;;;;2.45;2.00;;;;;;;;;;5002669;28;20124;-72
2022/06/06 05:43:10;;;;;;;5.50;1.85;;;;;;;;;;4953762;28;20157;-72
2022/06/06 05:45:54;;;;;;;3.53;1.85;;;;;;;;;;4963833;28;20027;-72
2022/06/06 05:48:28;;;;;;;3.42;1.88;;;;;;;;;;4961784;28;20041;-73
2022/06/06 05:50:58;;;;;;;4.45;1.60;;;;;;;;;;4953474;28;20019;-72
2022/06/06 05:53:27;;;;;;;2.58;1.42;;;;;;;;;;5031667;28;20035;-71
2022/06/06 05:56:13;;;;;;;2.40;1.30;;;;;;;;;;4958800;28;20019;-72
2022/06/06 05:58:39;;;;;;;2.47;1.40;;;;;;;;;;4954395;28;20085;-72
2022/06/06 06:01:12;;;;;;;2.00;1.25;;;;;;;;;;5032517;28;20027;-72
2022/06/06 06:03:41;;;;;;;1.45;1.10;;;;;;;;;;4956560;28;20019;-72
2022/06/06 06:06:16;;;;;;;1.95;1.05;;;;;;;;;;4959401;28;20060;-73
2022/06/06 06:09:00;;;;;;;1.25;0.98;;;;;;;;;;4964270;28;20038;-73
2022/06/06 06:11:29;;;;;;;1.65;0.90;;;;;;;;;;4955268;28;20046;-73
2022/06/06 06:14:03;;;;;;;0.98;0.77;;;;;;;;;;4960709;28;20508;-74
2022/06/06 06:16:32;;;;;;;1.38;1.17;;;;;;;;;;5030674;28;20042;-73
2022/06/06 06:19:01;;;;;;;1.90;1.25;;;;;;;;;;4963954;28;20035;-73
2022/06/06 06:21:34;;;;;;;2.45;1.08;;;;;;;;;;4968091;28;20552;-73
2022/06/06 06:24:06;;;;;;;2.85;0.73;;;;;;;;;;4962638;28;20027;-73
2022/06/06 06:26:32;;;;;;;2.10;0.95;;;;;;;;;;4959166;28;20412;-73
2022/06/06 06:29:06;;;;;;;2.55;0.82;;;;;;;;;;4968537;28;20031;-73
2022/06/06 06:31:38;;;;;;;1.10;0.88;;;;;;;;;;4958929;28;20019;-73
2022/06/06 06:34:11;;;;;;;2.30;0.88;;;;;;;;;;4962558;28;20114;-73
2022/06/06 06:36:43;;;;;;;1.08;0.80;;;;;;;;;;5012807;28;20035;-73
2022/06/06 06:39:44;;;;;;;4.60;1.60;;;;;;;;;;4957650;28;20484;-73
2022/06/06 06:42:28;;;;;;;2.13;0.90;;;;;;;;;;5006603;28;20455;-73
2022/06/06 06:45:00;;;;;;;1.27;0.90;;;;;;;;;;4976134;28;20062;-73
2022/06/06 06:47:30;;;;;;;2.58;0.80;;;;;;;;;;4957919;28;20134;-73
2022/06/06 06:49:56;;;;;;;;;;;;;;;;;;4964594;28;20027;-73
2022/06/06 06:52:31;;;;;;;2.45;1.05;;;;;;;;;;4966676;28;20193;-73
2022/06/06 06:55:05;;;;;;;2.00;1.00;;;;;;;;;;4956969;28;20035;-74
2022/06/06 06:57:37;;;;;;;1.02;0.80;;;;;;;;;;4966210;28;20077;-74
2022/06/06 07:00:12;;;;;;;2.03;0.80;;;;;;;;;;4963761;28;20031;-73
2022/06/06 07:08:36;;;;;;;39.58;22.55;;;;;;;;;;4993963;28;20414;-73
2022/06/06 07:11:21;;;;;;;6.28;3.53;;;;;;;;;;4955925;28;20115;-73
2022/06/06 07:13:59;;;;;;;4.50;1.60;;;;;;;;;;5031150;28;20058;-74
2022/06/06 07:16:29;;;;;;;1.65;0.90;;;;;;;;;;4965606;28;20532;-72
2022/06/06 07:19:10;;;;;;;1.40;1.13;;;;;;;;;;4954960;28;20043;-73
2022/06/06 07:21:37;;;;;;;1.10;0.80;;;;;;;;;;4965748;28;20354;-73
2022/06/06 07:24:04;;;;;;;3.50;1.10;;;;;;;;;;4962246;28;20031;-73
2022/06/06 07:26:30;;;;;;;1.00;0.90;;;;;;;;;;4957752;28;20027;-74
2022/06/06 07:28:57;;;;;;;1.00;0.90;;;;;;;;;;5034461;28;20492;-74
2022/06/06 07:31:28;;;;;;;3.50;1.10;;;;;;;;;;4956956;28;20081;-73
2022/06/06 07:34:15;;;;;;;0.80;0.80;;;31.30;38.60;;;;;;4963290;28;20389;-73
2022/06/06 07:36:59;;;;;;;0.90;0.90;;;31.70;38.40;;;;;;4967691;28;20053;-73
2022/06/06 07:39:24;;;;;;;1.20;1.10;;;;;;;;;;5035516;28;20081;-74
2022/06/06 07:42:06;;;;;;;1.63;1.20;;;;;;;;;;4960591;28;20415;-73
2022/06/06 07:45:13;;;;;;;2.03;1.08;;;34.70;34.70;;;;;;4957791;28;20035;-74
2022/06/06 07:47:51;;;;;;;3.42;1.13;;;35.40;32.20;;;;;;4958067;28;20033;-73
2022/06/06 07:50:22;;;;;;;1.95;1.02;;;35.50;31.60;;;;;;4959452;28;20034;-72
2022/06/06 07:52:57;;;;;;;;;;;35.50;32.00;;;;;;4968447;28;20425;-73
2022/06/06 07:55:29;;;;;;;1.42;1.17;;;36.00;30.80;;;;;;4956779;28;20009;-72
2022/06/06 07:58:08;;;;;;;1.70;0.90;;;35.40;30.60;;;;;;5004283;28;20513;-73
2022/06/06 08:00:34;;;;;;;0.80;0.80;;;35.50;31.80;;;;;;4965821;28;20099;-73
2022/06/06 08:03:16;;;;;;;1.48;0.82;;;36.20;29.70;;;;;;4960606;28;20104;-73
2022/06/06 08:05:53;;;;;;;2.63;1.00;;;36.60;29.20;;;;;;4964209;28;20073;-73
2022/06/06 08:08:40;;;;;;;3.13;1.15;;;36.10;29.90;;;;;;5000024;28;20038;-73
2022/06/06 08:11:43;;;;;;;1.60;1.08;;;35.50;30.50;;;;;;4984148;28;20115;-73
2022/06/06 08:14:14;;;;;;;3.03;0.98;;;34.70;31.50;;;;;;4964308;28;20031;-72
2022/06/06 08:17:06;;;;;;;1.08;0.80;;;34.00;32.60;;;;;;4965656;28;20533;-72
2022/06/06 08:19:48;;;;;;;2.08;0.80;;;34.70;32.10;;;;;;4961450;28;20072;-73
2022/06/06 08:22:15;;;;;;;2.50;0.80;;;;;;;;;;4968671;28;20038;-74
2022/06/06 08:24:44;;;;;;;0.88;0.80;;;;;;;;;;4955459;28;20045;-74
2022/06/06 08:27:12;;;;;;;1.58;1.08;;;;;;;;;;4965493;28;20130;-73
2022/06/06 08:29:39;;;;;;;1.25;1.00;;;;;;;;;;4963814;28;20050;-73
2022/06/06 08:32:07;;;;;;;2.00;1.20;;;35.40;30.20;;;;;;4961821;28;20027;-73
2022/06/06 08:34:34;;;;;;;1.95;0.93;;;34.00;31.90;;;;;;4956316;28;20042;-71
2022/06/06 08:37:13;;;;;;;4.47;1.10;;;32.60;34.70;;;;;;5026207;28;20030;-72
2022/06/06 08:39:58;;;;;;;1.92;0.93;;;31.60;35.40;;;;;;4957830;28;20023;-72
2022/06/06 08:42:32;;;;;;;2.08;0.95;;;31.70;36.50;;;;;;4957697;28;20033;-73
2022/06/06 08:45:21;;;;;;;5.95;3.80;;;32.90;34.00;;;;;;5033410;28;20122;-74
2022/06/06 08:48:10;;;;;;;10.60;6.35;;;34.00;32.80;;;;;;4977397;28;20042;-74
2022/06/06 08:50:55;;;;;;;2.75;1.10;;;34.90;30.80;;;;;;4969342;28;20122;-73
2022/06/06 08:53:39;;;;;;;2.05;1.00;;;34.90;30.90;;;;;;4951289;28;20034;-74
2022/06/06 08:56:24;;;;;;;1.00;0.90;;;34.60;31.40;;;;;;4961600;28;20096;-74
2022/06/06 08:59:01;;;;;;;2.83;1.00;;;35.60;30.30;;;;;;4964150;28;20027;-74
2022/06/06 09:01:41;;;;;;;0.98;0.80;;;35.20;30.70;;;;;;5021997;28;20138;-74
2022/06/06 09:04:13;;;;;;;21.92;12.73;;;34.40;30.90;;;;;;4961840;28;20034;-72
2022/06/06 09:07:06;;;;;;;68.22;42.00;;;33.20;32.30;;;;;;4955208;28;20035;-73
2022/06/06 09:09:53;;;;;;;7.03;3.75;;;31.70;35.20;;;;;;4957072;28;20023;-72
2022/06/06 09:12:38;;;;;;;2.53;1.38;;;31.30;36.40;;;;;;4958148;28;20019;-73
2022/06/06 09:15:32;;;;;;;5.18;1.08;;;32.70;35.10;;;;;;5003730;28;20479;-73
2022/06/06 09:18:16;;;;;;;3.72;1.85;;;34.00;32.90;;;;;;4959900;28;20460;-73
2022/06/06 09:20:53;;;;;;;3.33;1.20;;;34.80;31.00;;;;;;4969897;28;20473;-72
2022/06/06 09:23:56;;;;;;;3.00;1.20;;;34.90;30.20;;;;;;4955133;28;20111;-73
2022/06/06 09:26:24;;;;;;;0.93;0.90;;;34.90;30.30;;;;;;4956870;28;20034;-72
2022/06/06 09:29:12;;;;;;;1.05;1.00;;;34.50;31.20;;;;;;5020607;28;20029;-73
2022/06/06 09:32:34;;;;;;;2.25;1.25;;;33.90;31.10;;;;;;4961136;28;20088;-71
2022/06/06 09:35:24;;;;;;;2.15;1.40;;;32.90;32.80;;;;;;5026432;28;20037;-72
2022/06/06 09:37:50;;;;;;;1.63;1.17;;;32.00;34.80;;;;;;5000743;28;20304;-72
2022/06/06 09:40:45;;;;;;;1.10;1.00;;;32.50;34.20;;;;;;5035050;28;20066;-72
2022/06/06 09:43:49;;;;;;;45.10;27.73;;;33.30;32.30;;;;;;4950415;29;20081;-73
2022/06/06 09:46:48;;;;;;;3.22;1.67;;;33.80;31.40;;;;;;4985305;28;20076;-73
2022/06/06 09:49:25;;;;;;;3.90;1.35;;;33.40;31.90;;;;;;5035873;28;20026;-73
2022/06/06 09:52:08;;;;;;;9.73;5.20;;;32.70;32.70;;;;;;4960881;28;20023;-72
2022/06/06 10:00:51;;;;;;;3.35;1.23;;;31.00;36.90;;;;;;4954658;28;20042;-73
2022/06/06 10:03:36;;;;;;;1.10;0.93;;;31.60;34.30;;;;;;4954802;28;20023;-72
2022/06/06 10:06:35;;;;;;;2.17;1.10;;;31.60;34.20;;;;;;4958388;28;20042;-74
2022/06/06 10:09:25;;;;;;;1.33;1.00;;;31.90;34.40;;;;;;4965857;28;20096;-74
2022/06/06 10:12:17;;;;;;;1.63;1.33;;;31.60;34.60;;;;;;4958394;28;20019;-73
2022/06/06 10:15:16;;;;;;;3.58;1.23;;;31.50;34.90;;;;;;4966837;28;20031;-73
2022/06/06 10:18:00;;;;;;;1.70;1.40;;;31.80;33.70;;;;;;5014892;28;20027;-72
2022/06/06 10:20:37;;;;;;;0.93;0.93;;;32.10;33.80;;;;;;4963381;28;20161;-72
2022/06/06 10:23:07;;;;;;;3.83;1.20;;;32.10;34.70;;;;;;4952931;28;20051;-72
2022/06/06 10:26:04;;;;;;;1.17;1.08;;;31.70;34.50;;;;;;4962877;28;20073;-73
2022/06/06 10:28:42;;;;;;;2.97;1.10;;;30.90;35.70;;;;;;4963331;28;20023;-72
2022/06/06 10:31:10;;;;;;;1.05;0.82;;;30.40;36.80;;;;;;4952408;28;20076;-73
2022/06/06 10:34:12;;;;;;;2.10;1.63;;;30.30;37.40;;;;;;5013068;28;20442;-73
2022/06/06 10:36:51;;;;;;;1.63;1.10;;;30.20;37.20;;;;;;4964990;28;20034;-73
2022/06/06 10:39:36;;;;;;;0.90;0.90;;;30.20;38.00;;;;;;4949658;28;20020;-72
2022/06/06 10:42:01;;;;;;;2.60;1.40;;;30.00;38.60;;;;;;4960205;28;20015;-72
2022/06/06 10:45:09;;;;;;;2.03;1.15;;;29.90;37.80;;;;;;4955274;28;20036;-73
2022/06/06 10:47:57;;;;;;;1.05;0.90;;;29.80;37.80;;;;;;5035414;28;20027;-72
2022/06/06 10:50:33;;;;;;;2.50;1.10;;;29.70;38.60;;;;;;4962951;28;20027;-72
2022/06/06 10:53:20;;;;;;;1.20;1.08;;;30.00;39.70;;;;;;5018638;28;20039;-73
2022/06/06 10:56:16;;;;;;;1.33;1.23;;;30.10;38.20;;;;;;4960684;28;20027;-75
2022/06/06 10:58:56;;;;;;;1.30;1.20;;;30.30;37.70;;;;;;4948839;28;20069;-73
2022/06/06 11:01:57;;;;;;;5.95;1.63;;;30.10;36.50;;;;;;4955600;28;20049;-72
2022/06/06 11:04:34;;;;;;;3.30;1.83;;;29.60;37.60;;;;;;4995797;28;20039;-72
2022/06/06 11:07:03;;;;;;;1.50;1.38;;;29.10;39.50;;;;;;5035017;28;20707;-72
2022/06/06 11:09:32;;;;;;;1.42;1.33;;;29.30;39.60;;;;;;4958781;28;20034;-70
2022/06/06 11:12:30;;;;;;;3.40;1.35;;;29.40;38.00;;;;;;5038874;28;20468;-72
2022/06/06 11:15:00;;;;;;;4.45;1.15;;;29.40;38.40;;;;;;4955473;28;20119;-73
2022/06/06 11:17:45;;;;;;;1.77;1.40;;;29.10;39.50;;;;;;5032142;28;20489;-72
2022/06/06 11:20:48;;;;;;;2.40;1.48;;;29.10;38.80;;;;;;5030805;28;20104;-73
2022/06/06 11:23:26;;;;;;;1.63;1.20;;;29.20;38.40;;;;;;5039917;28;20117;-72
2022/06/06 11:26:13;;;;;;;3.30;1.60;;;29.00;38.40;;;;;;4962637;28;20035;-73
2022/06/06 11:29:01;;;;;;;1.75;1.20;;;29.00;39.30;;;;;;4967225;28;20027;-72
2022/06/06 11:31:39;;;;;;;2.85;1.38;;;29.00;39.40;;;;;;4957767;28;20026;-73
2022/06/06 11:34:42;;;;;;;1.20;1.10;;;28.80;40.30;;;;;;4995045;28;20295;-71
2022/06/06 11:37:34;;;;;;;1.45;1.20;;;28.90;39.70;;;;;;4967146;28;20494;-72
2022/06/06 11:40:37;;;;;;;1.38;0.85;;;29.20;39.70;;;;;;4962456;28;20106;-73
2022/06/06 11:43:22;;;;;;;2.38;1.15;;;29.30;38.30;;;;;;5026600;28;20039;-73
2022/06/06 11:46:19;;;;;;;1.48;1.38;;;29.60;38.90;;;;;;4962806;28;20365;-73
2022/06/06 11:49:06;;;;;;;3.22;1.00;;;29.70;38.70;;;;;;4968206;28;20430;-73
2022/06/06 11:51:54;;;;;;;1.85;1.20;;;29.90;38.20;;;;;;4964842;28;20035;-73
2022/06/06 11:55:07;;;;;;;2.65;1.20;;;30.30;37.10;;;;;;4964639;28;20034;-73
2022/06/06 11:58:14;;;;;;;1.48;1.30;;;30.30;37.20;;;;;;4957760;28;20027;-73
2022/06/06 12:01:08;;;;;;;1.33;1.10;;;30.50;37.10;;;;;;4955807;28;20032;-73
2022/06/06 12:04:12;;;;;;;1.55;1.45;;;30.70;36.30;;;;;;4958945;28;20377;-73
2022/06/06 12:07:06;;;;;;;1.27;1.15;;;30.60;36.60;;;;;;4955629;28;20037;-72
2022/06/06 12:09:51;;;;;;;2.22;1.02;;;30.30;37.20;;;;;;4958715;28;20472;-73
2022/06/06 12:12:40;;;;;;;2.78;1.27;;;30.00;37.20;;;;;;4959076;28;20034;-73
2022/06/06 12:15:20;;;;;;;1.88;1.10;;;30.00;36.80;;;;;;4968111;28;20031;-73
2022/06/06 12:17:49;;;;;;;1.58;1.13;;;30.00;36.20;;;;;;4960099;28;20545;-73
2022/06/06 12:20:40;;;;;;;2.00;1.63;;;30.20;36.40;;;;;;4959251;28;20030;-73
2022/06/06 12:23:41;;;;;;;2.65;1.45;;;30.20;35.90;;;;;;4967947;28;20030;-73
2022/06/06 12:26:27;;;;;;;2.13;1.30;;;30.20;36.80;;;;;;4992758;28;20043;-73
2022/06/06 12:29:18;;;;;;;1.73;1.30;;;30.10;36.70;;;;;;4953687;28;20370;-73
2022/06/06 12:31:57;;;;;;;1.63;1.45;;;30.40;36.80;;;;;;5007847;28;20038;-74
2022/06/06 12:34:26;;;;;;;3.10;1.40;;;30.40;35.40;;;;;;4964924;28;20114;-73
2022/06/06 12:37:12;;;;;;;2.55;1.38;;;30.50;35.80;;;;;;4961522;28;20030;-73
2022/06/06 12:40:05;;;;;;;4.43;1.90;;;30.00;35.40;;;;;;5034474;28;20019;-73
2022/06/06 12:42:55;;;;;;;3.92;1.33;;;30.00;36.60;;;;;;4956490;28;20030;-73
2022/06/06 12:45:41;;;;;;;2.38;1.30;;;30.40;36.00;;;;;;4956764;28;20381;-74
2022/06/06 12:48:31;;;;;;;1.70;1.55;;;30.60;35.50;;;;;;4958442;28;20028;-73
2022/06/06 12:51:10;;;;;;;2.03;1.30;;;30.80;35.90;;;;;;4967216;28;20050;-74
2022/06/06 12:53:56;;;;;;;2.20;1.20;;;31.10;33.20;;;;;;4958333;28;20400;-74
2022/06/06 12:56:31;;;;;;;1.45;1.35;;;31.20;34.10;;;;;;4956826;28;20024;-73
2022/06/06 12:59:18;;;;;;;1.33;1.17;;;31.40;33.60;;;;;;4965781;28;20027;-73
2022/06/06 13:02:23;;;;;;;3.05;1.48;;;31.20;33.70;;;;;;4981020;28;20023;-74
2022/06/06 13:05:02;;;;;;;1.67;1.30;;;31.10;34.10;;;;;;4954076;28;20173;-74
2022/06/06 13:07:59;;;;;;;3.90;1.60;;;30.70;34.00;;;;;;4962920;28;20039;-72
2022/06/06 13:10:52;;;;;;;4.72;1.60;;;30.80;35.70;;;;;;4964964;28;20030;-73
2022/06/06 13:13:44;;;;;;;3.63;1.80;;;30.90;33.90;;;;;;4956145;28;20050;-73
2022/06/06 13:16:55;;;;;;;3.25;1.83;;;30.90;33.70;;;;;;4988810;28;20023;-74
2022/06/06 13:19:35;;;;;;;2.75;1.70;;;30.90;33.60;;;;;;4955545;28;20015;-73
2022/06/06 13:22:19;;;;;;;1.35;1.25;;;31.20;33.20;;;;;;4959172;28;20042;-73
2022/06/06 13:25:24;;;;;;;2.20;1.73;;;31.00;32.10;;;;;;4965967;28;20031;-74
2022/06/06 13:27:58;;;;;;;2.05;1.40;;;31.10;32.80;;;;;;4959081;28;20489;-73
2022/06/06 13:30:45;;;;;;;2.53;1.50;;;31.00;33.30;;;;;;4977938;28;20031;-74
2022/06/06 13:33:34;;;;;;;1.73;1.50;;;31.00;33.40;;;;;;4964426;28;20039;-74
2022/06/06 13:36:31;;;;;;;3.17;1.20;;;31.20;33.40;;;;;;4959241;28;20035;-74
2022/06/06 13:39:19;;;;;;;1.90;1.20;;;31.20;31.90;;;;;;4967287;28;20050;-74
2022/06/06 13:42:06;;;;;;;3.40;1.13;;;31.00;32.30;;;;;;4961267;28;20102;-73
2022/06/06 13:44:44;;;;;;;1.40;1.02;;;30.90;32.80;;;;;;4950590;29;20031;-73
2022/06/06 13:47:32;;;;;;;2.83;1.52;;;30.80;32.90;;;;;;4953480;28;20019;-73
2022/06/06 13:50:27;;;;;;;1.70;1.40;;;30.40;32.30;;;;;;4970323;28;20496;-74
2022/06/06 13:53:09;;;;;;;2.72;1.35;;;30.50;33.40;;;;;;4953103;28;20031;-72
2022/06/06 13:55:37;;;;;;;;;;;30.10;33.60;;;;;;4969949;28;20031;-73
2022/06/06 13:58:31;;;;;;;10.82;5.63;;;30.20;34.40;;;;;;4991277;28;19907;-73
2022/06/06 14:01:24;;;;;;;35.58;15.60;;;30.00;34.60;;;;;;4965985;28;20076;-71
2022/06/06 14:04:05;;;;;;;33.13;14.35;;;29.80;34.90;;;;;;4959704;28;20034;-73
2022/06/06 14:07:12;;;;;;;5.00;2.40;;;29.70;34.70;;;;;;4954573;28;20505;-73
2022/06/06 14:09:44;;;;;;;3.90;1.58;;;29.70;35.30;;;;;;4959582;28;20060;-73
2022/06/06 14:12:33;;;;;;;32.95;16.45;;;29.90;35.30;;;;;;4986660;28;20038;-73
2022/06/06 14:15:05;;;;;;;10.48;5.53;;;29.90;35.50;;;;;;4965888;28;20031;-73
2022/06/06 14:17:33;;;;;;;7.60;4.07;;;29.90;33.80;;;;;;4958961;28;20397;-73
2022/06/06 14:20:17;;;;;;;4.80;1.40;;;30.00;34.00;;;;;;4969228;28;20448;-72
2022/06/06 14:22:43;;;;;;;1.35;1.23;;;29.60;34.50;;;;;;4964066;28;20050;-73
2022/06/06 14:25:10;;;;;;;1.73;1.00;;;29.70;35.10;;;;;;4965568;28;20047;-73
2022/06/06 14:27:38;;;;;;;2.20;1.77;;;29.50;35.90;;;;;;5005242;28;20084;-72
2022/06/06 14:30:15;;;;;;;1.92;1.48;;;29.30;35.00;;;;;;5041134;28;20042;-73